Henderson, Maryland
Current Conditions -  °F | °C
As of 12:58 AM on Friday 31 Oct 2014 (Local Time) from KDOV Reporting Station
Scattered Clouds Scattered Clouds  
Wind Chill: 42°   Ceiling: Unl
Heat Index: 42°   Visibility: 10mi
Dew Point: 39°   Wind: 3mph
Humidity: 89%   Direction: 360°N
Pressure: 30.01"   Gusts: NA
Location:  39.07°N, 75.77°W
Report Text: KDOV 310458Z AUTO 36003KT 10SM SCT060 05/04 A3001 RMK AO2 SLP166 T00540038 401620043
Loading
Personal Weather Stations






























Interactive Weather Map New forecast layout! Learn more

10-Day Weather Forecast

Advertisements
Track Severe Weather on mobile